Track Роменская Анастасия

Time Latitude Longitude Accuracy (66% radius in meters) Altitude (meters) Speed (km/hour) Bearing (degrees) Battery (%) GPS flag
07:28:42 57.204775 60.121925 10.720000267029 323 0 0 69 1 delete
07:28:32 57.204775 60.121925 10.720000267029 323 0 0 69 1 delete
07:28:21 57.204775 60.121925 11.791999816895 323 0 0 69 1 delete
07:28:10 57.204775 60.121925 11.791999816895 323 0 0 69 1 delete
07:27:59 57.204775 60.121923 9.6480007171631 323 0 0 69 1 delete
07:27:48 57.204776 60.121923 9.6480007171631 323 0 0 69 1 delete
07:27:38 57.204775 60.121923 9.6480007171631 323 0 0 69 1 delete
07:27:26 57.204775 60.121923 9.6480007171631 323 0 0 69 1 delete
07:27:15 57.204775 60.121923 9.6480007171631 323 0 0 69 1 delete
07:27:04 57.204776 60.121923 10.720000267029 323 0 0 69 1 delete
07:26:53 57.204775 60.121921 9.6480007171631 323 0 0 69 1 delete
07:26:43 57.204774 60.121917 9.6480007171631 322 0 0 69 1 delete
07:26:32 57.204770 60.121926 9.6480007171631 323 0 0 69 1 delete
07:26:21 57.204763 60.121964 9.6480007171631 323 0 0 69 1 delete
07:26:11 57.204761 60.121966 9.6480007171631 324 0 0 69 1 delete
07:26:00 57.204761 60.121968 9.6480007171631 324 0 0 69 1 delete
07:25:49 57.204761 60.121968 9.6480007171631 324 0 0 69 1 delete
07:25:39 57.204761 60.121968 9.6480007171631 324 0 0 69 1 delete
07:25:27 57.204763 60.121964 9.6480007171631 323 0 0 69 1 delete
07:25:16 57.204762 60.121965 10.720000267029 323 0 0 69 1 delete
07:25:05 57.204762 60.121966 9.6480007171631 323 0 0 69 1 delete
07:24:54 57.204762 60.121966 9.6480007171631 323 0 0 69 1 delete
07:24:43 57.204761 60.121966 9.6480007171631 323 0 0 69 1 delete
07:24:32 57.204760 60.121966 9.6480007171631 323 0 0 69 1 delete
07:24:21 57.204758 60.121971 9.6480007171631 324 0 0 69 1 delete
07:24:10 57.204757 60.121974 9.6480007171631 324 0 0 69 1 delete
07:23:59 57.204757 60.121974 9.6480007171631 325 0 0 69 1 delete
07:23:49 57.204751 60.121979 10.720000267029 325 0 0 69 1 delete
07:23:37 57.204750 60.121978 10.720000267029 325 0 0 69 1 delete
07:23:26 57.204750 60.121979 10.720000267029 325 0 0 69 1 delete
07:23:15 57.204750 60.121979 11.791999816895 325 0 0 69 1 delete
07:23:04 57.204750 60.121979 10.720000267029 325 0 0 69 1 delete
07:22:54 57.204749 60.121980 10.720000267029 325 0 0 69 1 delete
07:22:44 57.204750 60.121981 10.720000267029 324 0 0 69 1 delete
07:22:34 57.204745 60.121965 10.720000267029 325 0 0 69 1 delete
07:22:22 57.204733 60.121927 10.720000267029 327 0 0 69 1 delete
07:22:11 57.204733 60.121927 10.720000267029 327 0 0 69 1 delete
07:22:01 57.204733 60.121927 10.720000267029 327 0 0 69 1 delete
07:21:50 57.204733 60.121926 10.720000267029 327 0 0 69 1 delete
07:21:39 57.204732 60.121926 10.720000267029 327 0 0 69 1 delete
07:21:28 57.204732 60.121927 10.720000267029 327 0 0 69 1 delete
07:21:17 57.204731 60.121928 10.720000267029 327 0 0 69 1 delete
07:21:05 57.204729 60.121930 10.720000267029 328 0 0 69 1 delete
07:20:53 57.204729 60.121930 10.720000267029 328 0 0 69 1 delete
07:20:42 57.204729 60.121929 10.720000267029 328 0 0 69 1 delete
07:20:31 57.204729 60.121929 10.720000267029 328 0 0 69 1 delete
07:20:20 57.204729 60.121930 10.720000267029 327 0 0 69 1 delete
07:20:09 57.204733 60.121918 10.720000267029 327 0 0 69 1 delete
07:19:58 57.204734 60.121914 10.720000267029 327 0 0 69 1 delete
07:19:47 57.204733 60.121912 10.720000267029 327 0 0 69 1 delete